createdAt,value
2022-10-24T00:01:34.304Z,95532.03
2022-10-24T00:04:02.049Z,95527.13
2022-10-24T00:06:29.819Z,95525.78
2022-10-24T00:08:57.466Z,95519.56
2022-10-24T00:11:27.650Z,95535.97
2022-10-24T00:13:56.688Z,95535.66
2022-10-24T00:16:24.773Z,95530.25
2022-10-24T00:18:54.472Z,95537.28
2022-10-24T00:21:22.670Z,95530.88
2022-10-24T00:23:50.705Z,95527.94
2022-10-24T00:26:20.844Z,95540.09
2022-10-24T00:28:48.578Z,95543.84
2022-10-24T00:31:18.735Z,95566.84
2022-10-24T00:33:46.451Z,95579.44
2022-10-24T00:36:20.661Z,95601.09
2022-10-24T00:38:48.985Z,95610.38
2022-10-24T00:41:18.668Z,95624.63
2022-10-24T00:43:46.736Z,95619.38
2022-10-24T00:46:17.855Z,95606.84
2022-10-24T00:48:48.741Z,95592.06
2022-10-24T00:51:24.965Z,95598.59
2022-10-24T00:56:33.423Z,95589.22
2022-10-24T00:59:04.298Z,95585.94
2022-10-24T01:01:33.927Z,95570.38
2022-10-24T01:04:03.771Z,95568.81
2022-10-24T01:06:49.790Z,95567.38
2022-10-24T01:09:35.757Z,95558.25
2022-10-24T01:12:16.726Z,95543.63
2022-10-24T01:14:54.195Z,95542.06
2022-10-24T01:17:27.341Z,95542.19
2022-10-24T01:20:40.508Z,95533.97
2022-10-24T01:23:31.222Z,95522.31
2022-10-24T01:26:13.175Z,95522.88
2022-10-24T01:28:51.165Z,95506.66
2022-10-24T01:31:26.684Z,95495.16
2022-10-24T01:34:00.704Z,95500.13
2022-10-24T01:36:34.102Z,95491.78
2022-10-24T01:39:07.045Z,95467.34
2022-10-24T01:41:35.135Z,95474.56
2022-10-24T01:44:08.045Z,95476.78
2022-10-24T01:46:42.355Z,95477.75
2022-10-24T01:49:15.635Z,95484.59
2022-10-24T01:51:45.324Z,95474.91
2022-10-24T01:54:14.045Z,95478.22
2022-10-24T01:56:41.709Z,95472.94
2022-10-24T01:59:30.337Z,95476.69
2022-10-24T02:02:03.994Z,95481.94
2022-10-24T02:04:35.403Z,95469.97
2022-10-24T02:07:08.139Z,95471.97
2022-10-24T02:09:38.861Z,95467.72
2022-10-24T02:12:10.025Z,95455.94
2022-10-24T02:14:42.332Z,95409.81
2022-10-24T02:17:11.772Z,95403.59
2022-10-24T02:19:39.629Z,95387.69
2022-10-24T02:22:16.649Z,95371.84
2022-10-24T02:24:53.177Z,95366.59
2022-10-24T02:27:26.993Z,95368.69
2022-10-24T02:29:59.585Z,95356.41
2022-10-24T02:32:32.808Z,95354.91
2022-10-24T02:35:03.560Z,95348.53
2022-10-24T02:37:33.390Z,95348.69
2022-10-24T02:40:03.943Z,95351.16
2022-10-24T02:42:32.862Z,95335.81
2022-10-24T02:45:01.264Z,95334.66
2022-10-24T02:47:32.760Z,95335.81
2022-10-24T02:50:02.927Z,95339.09
2022-10-24T02:52:30.955Z,95337.72
2022-10-24T02:54:58.591Z,95333.31
2022-10-24T02:57:26.664Z,95341.84
2022-10-24T02:59:54.458Z,95353.25
2022-10-24T03:02:23.151Z,95344.72
2022-10-24T03:04:52.216Z,95335.59
2022-10-24T03:07:22.743Z,95332.66
2022-10-24T03:09:52.204Z,95336.00
2022-10-24T03:12:20.114Z,95341.53
2022-10-24T03:14:47.782Z,95336.31
2022-10-24T03:17:15.494Z,95337.72
2022-10-24T03:19:43.140Z,95338.56
2022-10-24T03:22:12.700Z,95352.03
2022-10-24T03:24:44.514Z,95346.41
2022-10-24T03:27:22.694Z,95360.03
2022-10-24T03:29:50.358Z,95352.50
2022-10-24T03:32:17.998Z,95355.09
2022-10-24T03:34:45.787Z,95353.63
2022-10-24T03:37:14.910Z,95357.56
2022-10-24T03:39:42.543Z,95364.66
2022-10-24T03:42:12.553Z,95372.16
2022-10-24T03:44:40.908Z,95361.50
2022-10-24T03:47:08.729Z,95368.44
2022-10-24T03:49:36.400Z,95360.75
2022-10-24T03:52:05.342Z,95359.78
2022-10-24T03:54:34.565Z,95351.44
2022-10-24T03:57:02.480Z,95362.22
2022-10-24T03:59:30.141Z,95377.13
2022-10-24T04:01:59.512Z,95368.78
2022-10-24T04:04:27.174Z,95367.94
2022-10-24T04:06:54.962Z,95378.72
2022-10-24T04:09:22.967Z,95363.34
2022-10-24T04:11:53.613Z,95378.78
2022-10-24T04:14:21.451Z,95375.22
2022-10-24T04:16:49.193Z,95388.34
2022-10-24T04:19:18.454Z,95386.53
2022-10-24T04:21:48.237Z,95390.97
2022-10-24T04:24:17.160Z,95398.38
2022-10-24T04:26:44.947Z,95409.38
2022-10-24T04:29:14.059Z,95400.69
2022-10-24T04:31:41.791Z,95417.09
2022-10-24T04:34:09.520Z,95430.03
2022-10-24T04:36:37.151Z,95421.13
2022-10-24T04:39:04.947Z,95413.44
2022-10-24T04:41:32.569Z,95425.59
2022-10-24T04:44:00.233Z,95434.50
2022-10-24T04:46:33.992Z,95423.34
2022-10-24T04:49:01.674Z,95438.25
2022-10-24T04:51:29.291Z,95424.78
2022-10-24T04:53:57.095Z,95409.22
2022-10-24T04:56:25.906Z,95411.31
2022-10-24T04:58:53.816Z,95410.00
2022-10-24T05:01:21.463Z,95406.31
2022-10-24T05:03:50.551Z,95403.22
2022-10-24T05:06:18.293Z,95411.53
2022-10-24T05:08:45.983Z,95423.91
2022-10-24T05:11:13.801Z,95409.00
2022-10-24T05:13:44.687Z,95402.09
2022-10-24T05:16:12.714Z,95405.25
2022-10-24T05:18:41.587Z,95410.78
2022-10-24T05:21:10.553Z,95408.25
2022-10-24T05:23:38.222Z,95423.94
2022-10-24T05:26:06.009Z,95405.66
2022-10-24T05:28:33.691Z,95424.63
2022-10-24T05:31:01.837Z,95420.50
2022-10-24T05:33:29.416Z,95430.31
2022-10-24T05:35:57.075Z,95422.66
2022-10-24T05:38:26.611Z,95427.16
2022-10-24T05:40:54.858Z,95429.75
2022-10-24T05:43:22.529Z,95433.44
2022-10-24T05:48:19.066Z,95435.66
2022-10-24T05:50:46.673Z,95435.13
2022-10-24T05:53:14.249Z,95435.13
2022-10-24T05:55:43.145Z,95452.50
2022-10-24T05:58:10.734Z,95457.38
2022-10-24T06:00:38.323Z,95456.91
2022-10-24T06:03:05.893Z,95452.81
2022-10-24T06:05:33.483Z,95458.56
2022-10-24T06:08:01.056Z,95457.44
2022-10-24T06:10:28.866Z,95459.31
2022-10-24T06:12:58.020Z,95468.69
2022-10-24T06:15:25.694Z,95462.31
2022-10-24T06:17:53.322Z,95461.47
2022-10-24T06:20:20.906Z,95467.56
2022-10-24T06:22:49.652Z,95454.47
2022-10-24T06:25:18.286Z,95461.03
2022-10-24T06:27:45.905Z,95453.41
2022-10-24T06:30:14.993Z,95465.19
2022-10-24T06:32:44.562Z,95459.31
2022-10-24T06:35:14.657Z,95469.13
2022-10-24T06:37:45.822Z,95473.41
2022-10-24T06:40:15.705Z,95464.88
2022-10-24T06:42:43.322Z,95456.63
2022-10-24T06:45:11.065Z,95445.88
2022-10-24T06:47:40.128Z,95439.03
2022-10-24T06:50:08.526Z,95436.56
2022-10-24T06:52:37.830Z,95427.88
2022-10-24T06:55:06.427Z,95423.63
2022-10-24T06:57:34.087Z,95415.78
2022-10-24T07:00:01.745Z,95428.09
2022-10-24T07:02:29.381Z,95440.72
2022-10-24T07:04:59.538Z,95433.94
2022-10-24T07:07:27.458Z,95453.78
2022-10-24T07:09:56.603Z,95457.38
2022-10-24T07:12:25.340Z,95453.78
2022-10-24T07:14:53.326Z,95446.59
2022-10-24T07:17:21.431Z,95457.38
2022-10-24T07:19:53.702Z,95460.66
2022-10-24T07:22:22.710Z,95465.53
2022-10-24T07:24:54.028Z,95464.88
2022-10-24T07:27:21.761Z,95463.72
2022-10-24T07:29:49.795Z,95475.25
2022-10-24T07:32:17.407Z,95477.72
2022-10-24T07:34:44.997Z,95479.66
2022-10-24T07:37:12.633Z,95477.72
2022-10-24T07:39:41.632Z,95473.81
2022-10-24T07:42:09.243Z,95463.38
2022-10-24T07:44:36.781Z,95467.34
2022-10-24T07:47:12.033Z,95479.31
2022-10-24T07:49:51.788Z,95481.75
2022-10-24T07:52:23.871Z,95481.25
2022-10-24T07:55:17.960Z,95486.66
2022-10-24T07:57:56.603Z,95479.97
2022-10-24T08:00:25.226Z,95477.56
2022-10-24T08:02:52.989Z,95479.72
2022-10-24T08:05:22.906Z,95488.41
2022-10-24T08:08:00.338Z,95490.84
2022-10-24T08:10:40.180Z,95487.16
2022-10-24T08:13:10.363Z,95489.47
2022-10-24T08:15:41.035Z,95490.59
2022-10-24T08:18:08.643Z,95495.00
2022-10-24T08:20:36.274Z,95479.97
2022-10-24T08:23:04.049Z,95475.53
2022-10-24T08:25:31.661Z,95468.78
2022-10-24T08:28:02.801Z,95469.31
2022-10-24T08:30:32.854Z,95473.28
2022-10-24T08:33:00.636Z,95473.47
2022-10-24T08:35:28.438Z,95475.16
2022-10-24T08:37:56.359Z,95466.63
2022-10-24T08:40:23.975Z,95473.19
2022-10-24T08:42:51.815Z,95476.72
2022-10-24T08:45:30.313Z,95485.03
2022-10-24T08:48:01.983Z,95483.38
2022-10-24T08:50:31.759Z,95487.44
2022-10-24T08:53:03.456Z,95483.00
2022-10-24T08:55:48.821Z,95489.28
2022-10-24T08:58:21.045Z,95486.31
2022-10-24T09:00:51.958Z,95492.44
2022-10-24T09:09:20.445Z,95509.06
2022-10-24T09:11:53.504Z,95509.91
2022-10-24T09:14:24.228Z,95508.47
2022-10-24T09:16:58.189Z,95505.00
2022-10-24T09:19:28.844Z,95508.28
2022-10-24T09:21:59.739Z,95504.69
2022-10-24T09:28:08.412Z,95508.28
2022-10-24T09:30:37.640Z,95497.25
2022-10-24T09:33:16.396Z,95501.00
2022-10-24T09:35:44.513Z,95499.72
2022-10-24T09:38:33.956Z,95501.59
2022-10-24T09:41:05.433Z,95511.16
2022-10-24T09:43:38.902Z,95501.19
2022-10-24T09:46:09.858Z,95503.66
2022-10-24T09:48:49.262Z,95505.69
2022-10-24T09:51:25.136Z,95503.72
2022-10-24T09:54:06.553Z,95509.44
2022-10-24T09:56:37.999Z,95507.38
2022-10-24T09:59:32.208Z,95502.50
2022-10-24T10:02:19.173Z,95501.19
2022-10-24T10:04:49.663Z,95519.41
2022-10-24T10:07:19.845Z,95524.81
2022-10-24T10:09:55.700Z,95529.38
2022-10-24T10:12:30.351Z,95515.16
2022-10-24T10:14:58.298Z,95523.97
2022-10-24T10:17:30.943Z,95521.53
2022-10-24T10:20:00.655Z,95508.88
2022-10-24T10:22:32.249Z,95508.75
2022-10-24T10:25:01.441Z,95505.41
2022-10-24T10:27:33.822Z,95509.31
2022-10-24T10:30:18.547Z,95500.16
2022-10-24T10:32:56.107Z,95504.94
2022-10-24T10:35:32.945Z,95519.03
2022-10-24T10:38:07.977Z,95516.19
2022-10-24T10:40:40.928Z,95513.84
2022-10-24T10:43:27.312Z,95513.06
2022-10-24T10:46:07.073Z,95520.56
2022-10-24T10:48:49.093Z,95525.81
2022-10-24T10:51:26.404Z,95524.88
2022-10-24T10:54:01.218Z,95524.97
2022-10-24T10:56:35.985Z,95527.84
2022-10-24T10:59:24.700Z,95523.53
2022-10-24T11:02:00.421Z,95525.13
2022-10-24T11:04:38.232Z,95531.00
2022-10-24T11:07:16.415Z,95533.63
2022-10-24T11:09:46.200Z,95529.47
2022-10-24T11:12:20.771Z,95528.69
2022-10-24T11:14:54.283Z,95533.03
2022-10-24T11:17:26.010Z,95530.69
2022-10-24T11:20:05.462Z,95541.25
2022-10-24T11:22:39.626Z,95547.59
2022-10-24T11:25:18.081Z,95560.09
2022-10-24T11:27:51.556Z,95551.56
2022-10-24T11:30:41.642Z,95562.09
2022-10-24T11:33:16.364Z,95565.50
2022-10-24T11:46:37.645Z,95563.00
2022-10-24T11:49:15.655Z,95558.00
2022-10-24T11:51:48.543Z,95556.06
2022-10-24T11:54:20.592Z,95553.81
2022-10-24T11:56:52.825Z,95565.56
2022-10-24T11:59:24.215Z,95567.66
2022-10-24T12:02:26.882Z,95565.41
2022-10-24T12:05:11.045Z,95580.16
2022-10-24T12:08:05.417Z,95584.03
2022-10-24T12:10:53.361Z,95586.34
2022-10-24T12:13:45.925Z,95586.94
2022-10-24T12:16:24.342Z,95576.19
2022-10-24T12:18:59.475Z,95586.50
2022-10-24T12:21:29.737Z,95576.84
2022-10-24T12:23:59.915Z,95567.00
2022-10-24T12:26:29.789Z,95562.56
2022-10-24T12:28:59.159Z,95569.22
2022-10-24T12:31:30.094Z,95568.75
2022-10-24T12:34:48.835Z,95562.69
2022-10-24T12:37:37.185Z,95540.47
2022-10-24T12:40:42.110Z,95527.63
2022-10-24T12:43:16.931Z,95537.94
2022-10-24T12:45:44.514Z,95551.03
2022-10-24T12:48:29.558Z,95572.41
2022-10-24T12:51:21.798Z,95582.03
2022-10-24T12:54:03.208Z,95572.91
2022-10-24T12:56:31.759Z,95566.38
2022-10-24T12:59:02.115Z,95560.25
2022-10-24T13:01:34.448Z,95573.03
2022-10-24T13:04:34.211Z,95569.00
2022-10-24T13:07:40.211Z,95572.69
2022-10-24T13:10:29.015Z,95569.06
2022-10-24T13:13:22.691Z,95558.97
2022-10-24T13:15:59.204Z,95564.22
2022-10-24T13:18:45.007Z,95554.88
2022-10-24T13:21:23.773Z,95551.78
2022-10-24T13:23:53.021Z,95542.44
2022-10-24T13:26:39.472Z,95527.78
2022-10-24T13:29:15.634Z,95512.75
2022-10-24T13:31:49.480Z,95510.88
2022-10-24T13:34:31.589Z,95518.44
2022-10-24T13:37:03.769Z,95521.50
2022-10-24T13:39:39.416Z,95511.34
2022-10-24T13:42:20.040Z,95498.56
2022-10-24T13:44:50.115Z,95509.47
2022-10-24T13:47:22.290Z,95500.63
2022-10-24T13:49:55.448Z,95488.00
2022-10-24T13:52:27.864Z,95477.84
2022-10-24T13:55:01.189Z,95470.94
2022-10-24T13:57:33.721Z,95476.63
2022-10-24T14:00:03.067Z,95486.06
2022-10-24T14:02:34.083Z,95511.44
2022-10-24T14:05:03.605Z,95524.59
2022-10-24T14:07:33.677Z,95482.97
2022-10-24T14:10:08.534Z,95486.69
2022-10-24T14:12:38.066Z,95459.13
2022-10-24T14:15:07.343Z,95484.00
2022-10-24T14:17:35.835Z,95484.59
2022-10-24T14:20:22.034Z,95497.19
2022-10-24T14:22:49.945Z,95500.47
2022-10-24T14:25:29.977Z,95505.19
2022-10-24T14:28:01.515Z,95495.69
2022-10-24T14:30:34.288Z,95501.19
2022-10-24T14:33:23.647Z,95501.75
2022-10-24T14:35:55.282Z,95501.19
2022-10-24T14:38:26.940Z,95491.13
2022-10-24T14:41:08.400Z,95492.34
2022-10-24T14:43:39.980Z,95461.13
2022-10-24T14:46:30.347Z,95435.97
2022-10-24T14:49:01.883Z,95436.78
2022-10-24T14:51:37.692Z,95458.00
2022-10-24T14:54:17.015Z,95474.69
2022-10-24T14:56:46.575Z,95466.69
2022-10-24T14:59:22.976Z,95455.19
2022-10-24T15:01:56.463Z,95458.81
2022-10-24T15:04:32.832Z,95463.47
2022-10-24T15:07:16.225Z,95469.00
2022-10-24T15:09:54.880Z,95478.78
2022-10-24T15:12:35.048Z,95482.66
2022-10-24T15:15:24.830Z,95488.00
2022-10-24T15:17:53.718Z,95477.56
2022-10-24T15:20:24.632Z,95491.69
2022-10-24T15:22:55.825Z,95491.28
2022-10-24T15:25:28.568Z,95481.91
2022-10-24T15:28:00.231Z,95480.28
2022-10-24T15:30:30.068Z,95477.28
2022-10-24T15:32:59.043Z,95481.16
2022-10-24T15:35:27.692Z,95488.31
2022-10-24T15:37:57.447Z,95487.06
2022-10-24T15:40:30.327Z,95492.13
2022-10-24T15:42:59.463Z,95489.34
2022-10-24T15:45:27.566Z,95496.97
2022-10-24T15:47:55.412Z,95501.38
2022-10-24T15:50:25.090Z,95506.31
2022-10-24T15:52:55.787Z,95499.06
2022-10-24T15:55:26.151Z,95508.28
2022-10-24T15:57:54.649Z,95504.19
2022-10-24T16:00:24.923Z,95504.31
2022-10-24T16:02:56.949Z,95499.06
2022-10-24T16:05:35.651Z,95501.81
2022-10-24T16:08:03.353Z,95517.06
2022-10-24T16:10:30.969Z,95521.50
2022-10-24T16:12:58.761Z,95513.50
2022-10-24T16:18:06.377Z,95516.41
2022-10-24T16:20:34.717Z,95513.56
2022-10-24T16:23:02.344Z,95531.97
2022-10-24T16:25:31.977Z,95516.16
2022-10-24T16:27:59.833Z,95516.56
2022-10-24T16:30:30.993Z,95516.41
2022-10-24T16:32:58.658Z,95518.34
2022-10-24T16:35:28.796Z,95533.63
2022-10-24T16:37:58.399Z,95528.25
2022-10-24T16:40:26.852Z,95525.38
2022-10-24T16:42:56.118Z,95536.25
2022-10-24T16:45:24.765Z,95531.88
2022-10-24T16:47:53.683Z,95536.94
2022-10-24T16:50:24.354Z,95536.66
2022-10-24T16:52:53.135Z,95532.09
2022-10-24T16:55:21.822Z,95540.22
2022-10-24T16:57:50.036Z,95534.72
2022-10-24T17:00:19.048Z,95522.06
2022-10-24T17:02:48.620Z,95530.41
2022-10-24T17:05:18.813Z,95532.03
2022-10-24T17:07:46.843Z,95520.53
2022-10-24T17:10:18.389Z,95528.94
2022-10-24T17:12:48.570Z,95523.03
2022-10-24T17:15:20.834Z,95518.34
2022-10-24T17:17:50.159Z,95521.66
2022-10-24T17:20:19.494Z,95517.94
2022-10-24T17:22:47.752Z,95517.06
2022-10-24T17:25:20.246Z,95520.22
2022-10-24T17:27:48.946Z,95535.66
2022-10-24T17:30:19.872Z,95545.16
2022-10-24T17:32:47.924Z,95547.38
2022-10-24T17:35:17.833Z,95550.84
2022-10-24T17:38:07.181Z,95554.38
2022-10-24T17:40:42.292Z,95559.31
2022-10-24T17:43:18.473Z,95550.41
2022-10-24T17:45:46.419Z,95544.84
2022-10-24T17:48:15.694Z,95552.59
2022-10-24T17:50:43.555Z,95550.81
2022-10-24T17:53:13.568Z,95549.41
2022-10-24T17:55:46.360Z,95550.50
2022-10-24T17:58:15.609Z,95547.28
2022-10-24T18:00:44.061Z,95550.06
2022-10-24T18:03:11.812Z,95549.97
2022-10-24T18:05:39.577Z,95550.91
2022-10-24T18:08:08.885Z,95547.63
2022-10-24T18:10:39.524Z,95560.53
2022-10-24T18:13:07.954Z,95565.50
2022-10-24T18:15:36.413Z,95551.22
2022-10-24T18:18:04.098Z,95551.91
2022-10-24T18:20:32.623Z,95551.41
2022-10-24T18:23:00.645Z,95542.16
2022-10-24T18:25:28.949Z,95549.16
2022-10-24T18:27:58.002Z,95544.09
2022-10-24T18:30:27.304Z,95541.63
2022-10-24T18:32:54.966Z,95544.59
2022-10-24T18:35:22.751Z,95537.47
2022-10-24T18:37:50.603Z,95532.94
2022-10-24T18:40:18.892Z,95533.97
2022-10-24T18:42:51.388Z,95525.09
2022-10-24T18:45:23.340Z,95543.66
2022-10-24T18:47:51.708Z,95540.22
2022-10-24T18:50:21.960Z,95546.84
2022-10-24T18:52:54.035Z,95550.56
2022-10-24T18:55:24.776Z,95537.09
2022-10-24T18:57:53.708Z,95542.16
2022-10-24T19:00:24.829Z,95541.44
2022-10-24T19:03:03.941Z,95549.41
2022-10-24T19:05:44.087Z,95543.50
2022-10-24T19:08:14.731Z,95539.38
2022-10-24T19:10:43.069Z,95517.09
2022-10-24T19:13:10.923Z,95512.03
2022-10-24T19:15:43.814Z,95517.25
2022-10-24T19:18:14.861Z,95515.69
2022-10-24T19:20:42.576Z,95498.91
2022-10-24T19:23:12.785Z,95501.94
2022-10-24T19:25:40.480Z,95503.00
2022-10-24T19:28:08.659Z,95499.81
2022-10-24T19:30:37.991Z,95511.53
2022-10-24T19:33:06.983Z,95500.84
2022-10-24T19:35:36.871Z,95506.91
2022-10-24T19:38:04.621Z,95512.19
2022-10-24T19:40:32.395Z,95521.16
2022-10-24T19:43:00.357Z,95525.97
2022-10-24T19:45:29.973Z,95524.72
2022-10-24T19:47:57.817Z,95523.44
2022-10-24T19:50:26.889Z,95525.13
2022-10-24T19:52:54.559Z,95523.34
2022-10-24T19:55:22.617Z,95513.31
2022-10-24T19:57:50.623Z,95504.06
2022-10-24T20:00:18.538Z,95504.47
2022-10-24T20:02:48.968Z,95516.28
2022-10-24T20:05:19.275Z,95514.47
2022-10-24T20:07:48.199Z,95517.38
2022-10-24T20:10:15.978Z,95516.41
2022-10-24T20:12:43.764Z,95526.44
2022-10-24T20:15:13.661Z,95531.25
2022-10-24T20:17:41.240Z,95531.25
2022-10-24T20:20:11.266Z,95535.53
2022-10-24T20:22:39.288Z,95533.22
2022-10-24T20:25:08.906Z,95539.13
2022-10-24T20:27:38.748Z,95541.47
2022-10-24T20:30:08.237Z,95544.91
2022-10-24T20:32:35.822Z,95531.69
2022-10-24T20:35:05.580Z,95528.69
2022-10-24T20:37:33.223Z,95522.53
2022-10-24T20:40:00.941Z,95530.94
2022-10-24T20:42:29.932Z,95521.84
2022-10-24T20:44:57.496Z,95529.56
2022-10-24T20:47:25.119Z,95531.47
2022-10-24T20:49:54.355Z,95539.19
2022-10-24T20:52:21.937Z,95541.66
2022-10-24T20:54:49.784Z,95534.66
2022-10-24T20:57:17.440Z,95548.38
2022-10-24T20:59:46.435Z,95548.00
2022-10-24T21:02:14.221Z,95561.63
2022-10-24T21:04:41.935Z,95563.53
2022-10-24T21:07:09.635Z,95568.34
2022-10-24T21:09:37.329Z,95563.69
2022-10-24T21:12:05.415Z,95561.44
2022-10-24T21:14:33.072Z,95558.72
2022-10-24T21:17:05.435Z,95558.72
2022-10-24T21:19:33.084Z,95555.81
2022-10-24T21:22:00.744Z,95567.88
2022-10-24T21:24:28.359Z,95566.78
2022-10-24T21:26:56.056Z,95574.22
2022-10-24T21:29:39.108Z,95568.97
2022-10-24T21:32:09.374Z,95581.72
2022-10-24T21:34:37.048Z,95581.84
2022-10-24T21:37:05.553Z,95586.69
2022-10-24T21:39:33.207Z,95583.81
2022-10-24T21:42:00.825Z,95590.53
2022-10-24T21:44:28.426Z,95586.00
2022-10-24T21:46:56.074Z,95598.13
2022-10-24T21:49:25.604Z,95599.06
2022-10-24T21:51:53.429Z,95598.38
2022-10-24T21:54:22.496Z,95606.78
2022-10-24T21:56:50.134Z,95600.47
2022-10-24T21:59:19.962Z,95599.75
2022-10-24T22:01:49.091Z,95609.09
2022-10-24T22:04:17.607Z,95599.19
2022-10-24T22:06:47.152Z,95601.00
2022-10-24T22:09:17.535Z,95604.28
2022-10-24T22:11:45.822Z,95608.84
2022-10-24T22:14:15.582Z,95612.72
2022-10-24T22:16:45.570Z,95621.53
2022-10-24T22:19:14.578Z,95626.34
2022-10-24T22:21:44.636Z,95625.38
2022-10-24T22:24:15.476Z,95626.22
2022-10-24T22:26:43.516Z,95626.59
2022-10-24T22:29:13.801Z,95628.81
2022-10-24T22:31:41.956Z,95638.56
2022-10-24T22:34:12.069Z,95635.13
2022-10-24T22:37:05.259Z,95643.63
2022-10-24T22:39:35.054Z,95669.94
2022-10-24T22:42:03.177Z,95664.13
2022-10-24T22:44:31.211Z,95662.25
2022-10-24T22:47:11.406Z,95680.38
2022-10-24T22:49:53.460Z,95681.78
2022-10-24T22:52:21.611Z,95675.69
2022-10-24T22:54:51.440Z,95689.19
2022-10-24T22:57:19.646Z,95694.97
2022-10-24T22:59:47.798Z,95705.13
2022-10-24T23:02:28.748Z,95717.91
2022-10-24T23:05:03.931Z,95721.50
2022-10-24T23:07:39.444Z,95705.72
2022-10-24T23:10:13.758Z,95714.22
2022-10-24T23:12:41.899Z,95711.63
2022-10-24T23:15:13.998Z,95705.84
2022-10-24T23:17:42.219Z,95709.97
2022-10-24T23:20:22.795Z,95703.50
2022-10-24T23:22:58.304Z,95701.44
2022-10-24T23:25:38.943Z,95711.63
2022-10-24T23:28:16.614Z,95713.66
2022-10-24T23:30:44.926Z,95704.03
2022-10-24T23:33:21.728Z,95708.16
2022-10-24T23:35:54.035Z,95708.72
2022-10-24T23:38:22.129Z,95718.63
2022-10-24T23:40:52.207Z,95716.41
2022-10-24T23:43:23.063Z,95709.38
2022-10-24T23:45:58.510Z,95711.88
2022-10-24T23:48:37.470Z,95727.56
2022-10-24T23:51:10.148Z,95710.34
2022-10-24T23:53:49.255Z,95708.56
2022-10-24T23:56:21.609Z,95703.75
2022-10-24T23:58:49.655Z,95700.72
